sensor_id;sensor_type;location;lat;lon;timestamp;pressure;altitude;pressure_sealevel;temperature;humidity
64698;BME280;51124;53.394;-6.294;2024-03-25T00:01:18;99249.68;;;17.55;11.93
64698;BME280;51124;53.394;-6.294;2024-03-25T00:03:46;99245.37;;;17.24;12.01
64698;BME280;51124;53.394;-6.294;2024-03-25T00:06:14;99234.45;;;17.65;11.85
64698;BME280;51124;53.394;-6.294;2024-03-25T00:08:42;99232.38;;;17.59;11.89
64698;BME280;51124;53.394;-6.294;2024-03-25T00:11:10;99220.41;;;17.37;11.75
64698;BME280;51124;53.394;-6.294;2024-03-25T00:13:37;99215.31;;;17.72;11.75
64698;BME280;51124;53.394;-6.294;2024-03-25T00:16:06;99207.47;;;17.44;11.93
64698;BME280;51124;53.394;-6.294;2024-03-25T00:18:34;99201.04;;;17.95;11.76
64698;BME280;51124;53.394;-6.294;2024-03-25T00:21:01;99196.64;;;17.44;11.89
64698;BME280;51124;53.394;-6.294;2024-03-25T00:23:29;99189.63;;;17.35;11.96
64698;BME280;51124;53.394;-6.294;2024-03-25T00:25:57;99185.95;;;18.14;11.82
64698;BME280;51124;53.394;-6.294;2024-03-25T00:28:25;99178.61;;;17.57;11.91
64698;BME280;51124;53.394;-6.294;2024-03-25T00:30:52;99172.03;;;17.89;11.81
64698;BME280;51124;53.394;-6.294;2024-03-25T00:33:20;99168.95;;;17.27;11.91
64698;BME280;51124;53.394;-6.294;2024-03-25T00:35:48;99162.55;;;18.03;11.84
64698;BME280;51124;53.394;-6.294;2024-03-25T00:38:16;99156.81;;;17.87;11.86
64698;BME280;51124;53.394;-6.294;2024-03-25T00:40:43;99152.58;;;17.29;11.89
64698;BME280;51124;53.394;-6.294;2024-03-25T00:43:11;99146.19;;;17.24;11.88
64698;BME280;51124;53.394;-6.294;2024-03-25T00:45:39;99140.09;;;17.86;11.81
64698;BME280;51124;53.394;-6.294;2024-03-25T00:48:07;99130.75;;;17.60;11.87
64698;BME280;51124;53.394;-6.294;2024-03-25T00:50:35;99125.49;;;17.65;11.73
64698;BME280;51124;53.394;-6.294;2024-03-25T00:53:03;99115.70;;;18.00;11.81
64698;BME280;51124;53.394;-6.294;2024-03-25T00:55:31;99109.21;;;17.18;11.91
64698;BME280;51124;53.394;-6.294;2024-03-25T00:57:58;99099.56;;;17.84;11.76
64698;BME280;51124;53.394;-6.294;2024-03-25T01:00:26;99100.13;;;17.56;11.74
64698;BME280;51124;53.394;-6.294;2024-03-25T01:02:54;99093.77;;;17.74;11.82
64698;BME280;51124;53.394;-6.294;2024-03-25T01:05:22;99087.28;;;17.92;11.77
64698;BME280;51124;53.394;-6.294;2024-03-25T01:07:49;99079.97;;;17.76;11.75
64698;BME280;51124;53.394;-6.294;2024-03-25T01:10:17;99076.60;;;17.96;11.74
64698;BME280;51124;53.394;-6.294;2024-03-25T01:12:45;99070.11;;;17.27;11.80
64698;BME280;51124;53.394;-6.294;2024-03-25T01:15:13;99068.16;;;17.85;11.84
64698;BME280;51124;53.394;-6.294;2024-03-25T01:17:40;99062.15;;;17.71;11.78
64698;BME280;51124;53.394;-6.294;2024-03-25T01:20:09;99056.62;;;17.83;11.76
64698;BME280;51124;53.394;-6.294;2024-03-25T01:22:37;99053.57;;;17.60;11.83
64698;BME280;51124;53.394;-6.294;2024-03-25T01:25:05;99054.40;;;17.99;11.78
64698;BME280;51124;53.394;-6.294;2024-03-25T01:27:33;99051.68;;;17.58;11.78
64698;BME280;51124;53.394;-6.294;2024-03-25T01:30:00;99041.51;;;17.87;11.78
64698;BME280;51124;53.394;-6.294;2024-03-25T01:32:28;99039.54;;;17.68;11.78
64698;BME280;51124;53.394;-6.294;2024-03-25T01:34:56;99039.52;;;17.76;11.78
64698;BME280;51124;53.394;-6.294;2024-03-25T01:37:24;99039.12;;;18.17;11.84
64698;BME280;51124;53.394;-6.294;2024-03-25T01:39:52;99035.08;;;17.27;11.82
64698;BME280;51124;53.394;-6.294;2024-03-25T01:42:19;99032.19;;;18.01;11.75
64698;BME280;51124;53.394;-6.294;2024-03-25T01:44:47;99027.65;;;17.14;11.79
64698;BME280;51124;53.394;-6.294;2024-03-25T01:47:15;99026.76;;;18.01;11.75
64698;BME280;51124;53.394;-6.294;2024-03-25T01:49:43;99021.89;;;18.00;11.76
64698;BME280;51124;53.394;-6.294;2024-03-25T01:52:11;99019.61;;;17.75;11.70
64698;BME280;51124;53.394;-6.294;2024-03-25T01:54:38;99012.50;;;17.63;11.69
64698;BME280;51124;53.394;-6.294;2024-03-25T01:57:06;99012.35;;;17.34;11.73
64698;BME280;51124;53.394;-6.294;2024-03-25T01:59:34;99009.09;;;18.14;11.65
64698;BME280;51124;53.394;-6.294;2024-03-25T02:02:03;99005.45;;;17.81;11.74
64698;BME280;51124;53.394;-6.294;2024-03-25T02:04:31;99004.09;;;18.17;11.71
64698;BME280;51124;53.394;-6.294;2024-03-25T02:06:58;99001.44;;;18.12;11.76
64698;BME280;51124;53.394;-6.294;2024-03-25T02:09:26;98998.45;;;18.00;11.77
64698;BME280;51124;53.394;-6.294;2024-03-25T02:11:55;98993.04;;;18.05;11.81
64698;BME280;51124;53.394;-6.294;2024-03-25T02:14:23;98990.70;;;17.86;11.79
64698;BME280;51124;53.394;-6.294;2024-03-25T02:16:51;98986.41;;;17.83;11.79
64698;BME280;51124;53.394;-6.294;2024-03-25T02:19:20;98982.21;;;17.39;11.80
64698;BME280;51124;53.394;-6.294;2024-03-25T02:21:49;98972.00;;;17.44;11.75
64698;BME280;51124;53.394;-6.294;2024-03-25T02:24:17;98968.86;;;18.10;11.69
64698;BME280;51124;53.394;-6.294;2024-03-25T02:26:46;98964.11;;;17.87;11.74
64698;BME280;51124;53.394;-6.294;2024-03-25T02:29:13;98959.33;;;18.01;11.72
64698;BME280;51124;53.394;-6.294;2024-03-25T02:31:41;98954.60;;;17.93;11.81
64698;BME280;51124;53.394;-6.294;2024-03-25T02:34:09;98948.85;;;17.93;11.82
64698;BME280;51124;53.394;-6.294;2024-03-25T02:36:37;98944.88;;;18.14;11.76
64698;BME280;51124;53.394;-6.294;2024-03-25T02:39:06;98939.81;;;17.91;11.78
64698;BME280;51124;53.394;-6.294;2024-03-25T02:41:34;98935.04;;;17.50;11.79
64698;BME280;51124;53.394;-6.294;2024-03-25T02:44:01;98930.27;;;18.03;11.73
64698;BME280;51124;53.394;-6.294;2024-03-25T02:46:29;98928.57;;;17.68;11.78
64698;BME280;51124;53.394;-6.294;2024-03-25T02:48:57;98924.70;;;17.76;11.87
64698;BME280;51124;53.394;-6.294;2024-03-25T02:51:25;98917.65;;;18.35;11.78
64698;BME280;51124;53.394;-6.294;2024-03-25T02:53:52;98911.28;;;17.38;11.75
64698;BME280;51124;53.394;-6.294;2024-03-25T02:56:20;98908.18;;;17.88;11.78
64698;BME280;51124;53.394;-6.294;2024-03-25T02:58:48;98901.37;;;17.51;11.80
64698;BME280;51124;53.394;-6.294;2024-03-25T03:01:17;98901.26;;;18.32;11.67
64698;BME280;51124;53.394;-6.294;2024-03-25T03:03:45;98894.70;;;17.77;11.77
64698;BME280;51124;53.394;-6.294;2024-03-25T03:06:13;98885.19;;;17.92;11.75
64698;BME280;51124;53.394;-6.294;2024-03-25T03:08:41;98882.68;;;17.82;11.78
64698;BME280;51124;53.394;-6.294;2024-03-25T03:11:08;98877.74;;;17.44;11.80
64698;BME280;51124;53.394;-6.294;2024-03-25T03:13:36;98875.00;;;17.57;11.77
64698;BME280;51124;53.394;-6.294;2024-03-25T03:16:04;98871.17;;;17.45;11.77
64698;BME280;51124;53.394;-6.294;2024-03-25T03:18:32;98863.58;;;17.76;11.75
64698;BME280;51124;53.394;-6.294;2024-03-25T03:21:00;98858.06;;;18.03;11.72
64698;BME280;51124;53.394;-6.294;2024-03-25T03:23:28;98852.46;;;17.74;11.79
64698;BME280;51124;53.394;-6.294;2024-03-25T03:25:55;98843.40;;;17.11;11.78
64698;BME280;51124;53.394;-6.294;2024-03-25T03:28:23;98839.02;;;17.69;11.78
64698;BME280;51124;53.394;-6.294;2024-03-25T03:30:51;98830.17;;;18.32;11.82
64698;BME280;51124;53.394;-6.294;2024-03-25T03:33:19;98827.19;;;17.68;11.81
64698;BME280;51124;53.394;-6.294;2024-03-25T03:35:46;98820.55;;;17.76;11.82
64698;BME280;51124;53.394;-6.294;2024-03-25T03:38:14;98817.35;;;17.96;11.78
64698;BME280;51124;53.394;-6.294;2024-03-25T03:40:42;98812.61;;;17.58;11.86
64698;BME280;51124;53.394;-6.294;2024-03-25T03:43:10;98809.59;;;17.57;11.89
64698;BME280;51124;53.394;-6.294;2024-03-25T03:45:37;98808.61;;;17.03;11.84
64698;BME280;51124;53.394;-6.294;2024-03-25T03:48:05;98807.18;;;18.01;11.75
64698;BME280;51124;53.394;-6.294;2024-03-25T03:50:33;98804.51;;;18.00;11.74
64698;BME280;51124;53.394;-6.294;2024-03-25T03:53:01;98802.69;;;17.76;11.83
64698;BME280;51124;53.394;-6.294;2024-03-25T03:55:29;98798.73;;;17.67;11.82
64698;BME280;51124;53.394;-6.294;2024-03-25T03:57:56;98798.07;;;18.24;11.79
64698;BME280;51124;53.394;-6.294;2024-03-25T04:00:24;98796.68;;;17.73;11.80
64698;BME280;51124;53.394;-6.294;2024-03-25T04:02:52;98794.93;;;17.60;11.78
64698;BME280;51124;53.394;-6.294;2024-03-25T04:05:19;98789.25;;;17.79;11.83
64698;BME280;51124;53.394;-6.294;2024-03-25T04:07:47;98786.01;;;17.68;11.78
64698;BME280;51124;53.394;-6.294;2024-03-25T04:10:15;98778.59;;;18.20;11.86
64698;BME280;51124;53.394;-6.294;2024-03-25T04:12:43;98773.70;;;15.46;11.78
64698;BME280;51124;53.394;-6.294;2024-03-25T04:15:11;98767.35;;;17.65;11.57
64698;BME280;51124;53.394;-6.294;2024-03-25T04:17:38;98765.90;;;17.56;11.65
64698;BME280;51124;53.394;-6.294;2024-03-25T04:20:07;98759.55;;;18.56;11.67
64698;BME280;51124;53.394;-6.294;2024-03-25T04:22:35;98759.33;;;17.84;11.77
64698;BME280;51124;53.394;-6.294;2024-03-25T04:25:02;98756.01;;;17.96;11.73
64698;BME280;51124;53.394;-6.294;2024-03-25T04:27:30;98752.25;;;17.87;11.73
64698;BME280;51124;53.394;-6.294;2024-03-25T04:29:58;98748.69;;;18.23;11.73
64698;BME280;51124;53.394;-6.294;2024-03-25T04:32:26;98738.79;;;17.69;11.79
64698;BME280;51124;53.394;-6.294;2024-03-25T04:34:53;98735.62;;;17.67;11.84
64698;BME280;51124;53.394;-6.294;2024-03-25T04:37:21;98735.11;;;17.34;11.88
64698;BME280;51124;53.394;-6.294;2024-03-25T04:39:48;98732.26;;;17.49;11.74
64698;BME280;51124;53.394;-6.294;2024-03-25T04:42:16;98729.32;;;17.42;11.80
64698;BME280;51124;53.394;-6.294;2024-03-25T04:44:44;98724.93;;;17.50;11.80
64698;BME280;51124;53.394;-6.294;2024-03-25T04:47:12;98720.01;;;17.04;11.79
64698;BME280;51124;53.394;-6.294;2024-03-25T04:49:40;98721.95;;;17.59;11.79
64698;BME280;51124;53.394;-6.294;2024-03-25T04:52:08;98724.42;;;17.27;11.80
64698;BME280;51124;53.394;-6.294;2024-03-25T04:54:36;98723.40;;;18.05;11.83
64698;BME280;51124;53.394;-6.294;2024-03-25T04:57:04;98723.52;;;17.79;11.75
64698;BME280;51124;53.394;-6.294;2024-03-25T04:59:31;98723.59;;;17.46;11.76
64698;BME280;51124;53.394;-6.294;2024-03-25T05:01:59;98714.24;;;17.43;11.86
64698;BME280;51124;53.394;-6.294;2024-03-25T05:04:27;98711.77;;;17.95;11.79
64698;BME280;51124;53.394;-6.294;2024-03-25T05:06:54;98705.22;;;17.77;11.87
64698;BME280;51124;53.394;-6.294;2024-03-25T05:09:22;98695.64;;;17.72;11.77
64698;BME280;51124;53.394;-6.294;2024-03-25T05:11:50;98685.76;;;17.65;11.74
64698;BME280;51124;53.394;-6.294;2024-03-25T05:14:18;98686.51;;;17.82;11.81
64698;BME280;51124;53.394;-6.294;2024-03-25T05:16:45;98680.17;;;17.36;11.83
64698;BME280;51124;53.394;-6.294;2024-03-25T05:19:13;98680.50;;;17.01;11.74
64698;BME280;51124;53.394;-6.294;2024-03-25T05:21:41;98681.14;;;17.54;11.82
64698;BME280;51124;53.394;-6.294;2024-03-25T05:24:09;98671.18;;;17.62;11.88
64698;BME280;51124;53.394;-6.294;2024-03-25T05:26:36;98670.35;;;17.40;11.84
64698;BME280;51124;53.394;-6.294;2024-03-25T05:29:04;98670.67;;;17.73;11.82
64698;BME280;51124;53.394;-6.294;2024-03-25T05:31:32;98668.86;;;17.58;11.80
64698;BME280;51124;53.394;-6.294;2024-03-25T05:34:00;98664.46;;;18.07;11.76
64698;BME280;51124;53.394;-6.294;2024-03-25T05:36:28;98663.52;;;17.95;11.77
64698;BME280;51124;53.394;-6.294;2024-03-25T05:38:55;98662.28;;;17.80;11.82
64698;BME280;51124;53.394;-6.294;2024-03-25T05:41:23;98656.49;;;17.16;11.82
64698;BME280;51124;53.394;-6.294;2024-03-25T05:43:51;98652.74;;;18.29;11.77
64698;BME280;51124;53.394;-6.294;2024-03-25T05:46:18;98658.23;;;17.53;11.85
64698;BME280;51124;53.394;-6.294;2024-03-25T05:48:46;98653.96;;;17.84;11.77
64698;BME280;51124;53.394;-6.294;2024-03-25T05:51:14;98652.48;;;18.12;11.76
64698;BME280;51124;53.394;-6.294;2024-03-25T05:53:42;98651.83;;;17.77;11.72
64698;BME280;51124;53.394;-6.294;2024-03-25T05:56:09;98653.67;;;17.65;11.73
64698;BME280;51124;53.394;-6.294;2024-03-25T05:58:37;98649.69;;;17.78;11.73
64698;BME280;51124;53.394;-6.294;2024-03-25T06:01:05;98652.48;;;18.11;11.76
64698;BME280;51124;53.394;-6.294;2024-03-25T06:03:33;98650.41;;;17.41;11.72
64698;BME280;51124;53.394;-6.294;2024-03-25T06:06:00;98649.55;;;17.39;11.74
64698;BME280;51124;53.394;-6.294;2024-03-25T06:08:28;98649.23;;;17.89;11.82
64698;BME280;51124;53.394;-6.294;2024-03-25T06:11:00;98642.31;;;17.71;11.77
64698;BME280;51124;53.394;-6.294;2024-03-25T06:13:28;98637.59;;;17.54;11.83
64698;BME280;51124;53.394;-6.294;2024-03-25T06:15:55;98633.46;;;17.61;11.80
64698;BME280;51124;53.394;-6.294;2024-03-25T06:18:23;98631.23;;;17.62;11.82
64698;BME280;51124;53.394;-6.294;2024-03-25T06:20:51;98626.14;;;17.68;11.81
64698;BME280;51124;53.394;-6.294;2024-03-25T06:23:27;98621.66;;;17.68;11.77
64698;BME280;51124;53.394;-6.294;2024-03-25T06:25:44;98622.83;;;17.46;11.77
64698;BME280;51124;53.394;-6.294;2024-03-25T06:28:12;98625.48;;;17.94;11.76
64698;BME280;51124;53.394;-6.294;2024-03-25T06:30:40;98625.22;;;17.94;11.76
64698;BME280;51124;53.394;-6.294;2024-03-25T06:33:08;98623.26;;;17.24;11.79
64698;BME280;51124;53.394;-6.294;2024-03-25T06:35:35;98621.33;;;17.71;11.81
64698;BME280;51124;53.394;-6.294;2024-03-25T06:38:03;98615.05;;;17.66;11.79
64698;BME280;51124;53.394;-6.294;2024-03-25T06:40:31;98611.93;;;17.58;11.83
64698;BME280;51124;53.394;-6.294;2024-03-25T06:42:59;98601.49;;;17.90;11.77
64698;BME280;51124;53.394;-6.294;2024-03-25T06:45:26;98587.76;;;16.84;11.81
64698;BME280;51124;53.394;-6.294;2024-03-25T06:47:54;98586.92;;;17.62;11.81
64698;BME280;51124;53.394;-6.294;2024-03-25T06:50:22;98581.38;;;17.50;11.86
64698;BME280;51124;53.394;-6.294;2024-03-25T06:52:50;98574.15;;;17.20;11.75
64698;BME280;51124;53.394;-6.294;2024-03-25T06:55:18;98573.16;;;17.14;11.78
64698;BME280;51124;53.394;-6.294;2024-03-25T06:57:45;98573.95;;;17.76;11.78
64698;BME280;51124;53.394;-6.294;2024-03-25T07:00:13;98571.87;;;17.63;11.80
64698;BME280;51124;53.394;-6.294;2024-03-25T07:02:42;98568.84;;;17.12;11.73
64698;BME280;51124;53.394;-6.294;2024-03-25T07:05:10;98566.62;;;17.47;11.78
64698;BME280;51124;53.394;-6.294;2024-03-25T07:07:38;98561.60;;;17.76;11.76
64698;BME280;51124;53.394;-6.294;2024-03-25T07:10:06;98557.32;;;17.34;11.76
64698;BME280;51124;53.394;-6.294;2024-03-25T07:12:34;98554.74;;;17.00;11.78
64698;BME280;51124;53.394;-6.294;2024-03-25T07:15:02;98553.58;;;17.80;11.71
64698;BME280;51124;53.394;-6.294;2024-03-25T07:17:30;98555.80;;;17.63;11.77
64698;BME280;51124;53.394;-6.294;2024-03-25T07:19:57;98556.77;;;17.77;11.75
64698;BME280;51124;53.394;-6.294;2024-03-25T07:22:25;98553.12;;;17.14;11.81
64698;BME280;51124;53.394;-6.294;2024-03-25T07:24:53;98549.49;;;17.58;11.71
64698;BME280;51124;53.394;-6.294;2024-03-25T07:27:21;98548.56;;;17.10;11.75
64698;BME280;51124;53.394;-6.294;2024-03-25T07:29:49;98545.67;;;17.37;11.72
64698;BME280;51124;53.394;-6.294;2024-03-25T07:32:16;98538.52;;;17.68;11.65
64698;BME280;51124;53.394;-6.294;2024-03-25T07:34:44;98536.19;;;17.48;11.76
64698;BME280;51124;53.394;-6.294;2024-03-25T07:37:12;98542.08;;;18.44;11.59
64698;BME280;51124;53.394;-6.294;2024-03-25T07:39:39;98541.30;;;17.29;11.92
64698;BME280;51124;53.394;-6.294;2024-03-25T07:42:07;98539.51;;;17.41;12.00
64698;BME280;51124;53.394;-6.294;2024-03-25T07:44:35;98541.51;;;16.65;11.92
64698;BME280;51124;53.394;-6.294;2024-03-25T07:47:03;98544.27;;;16.65;11.98
64698;BME280;51124;53.394;-6.294;2024-03-25T07:49:30;98546.34;;;16.95;11.78
64698;BME280;51124;53.394;-6.294;2024-03-25T07:51:58;98548.03;;;17.09;11.88
64698;BME280;51124;53.394;-6.294;2024-03-25T07:54:26;98543.82;;;17.57;11.90
64698;BME280;51124;53.394;-6.294;2024-03-25T07:56:54;98540.80;;;18.00;12.67
64698;BME280;51124;53.394;-6.294;2024-03-25T07:59:22;98543.57;;;18.23;12.86
64698;BME280;51124;53.394;-6.294;2024-03-25T08:01:49;98537.89;;;17.56;13.04
64698;BME280;51124;53.394;-6.294;2024-03-25T08:04:17;98537.96;;;17.88;13.03
64698;BME280;51124;53.394;-6.294;2024-03-25T08:06:45;98536.76;;;18.23;12.97
64698;BME280;51124;53.394;-6.294;2024-03-25T08:09:13;98539.32;;;17.79;12.80
64698;BME280;51124;53.394;-6.294;2024-03-25T08:11:41;98530.98;;;17.37;12.92
64698;BME280;51124;53.394;-6.294;2024-03-25T08:14:09;98527.19;;;18.09;13.04
64698;BME280;51124;53.394;-6.294;2024-03-25T08:16:37;98532.51;;;17.46;13.06
64698;BME280;51124;53.394;-6.294;2024-03-25T08:19:05;98534.89;;;17.71;13.29
64698;BME280;51124;53.394;-6.294;2024-03-25T08:21:33;98535.90;;;16.57;13.66
64698;BME280;51124;53.394;-6.294;2024-03-25T08:24:01;98540.06;;;17.75;13.26
64698;BME280;51124;53.394;-6.294;2024-03-25T08:26:29;98538.75;;;17.25;13.20
64698;BME280;51124;53.394;-6.294;2024-03-25T08:28:56;98542.51;;;17.17;13.46
64698;BME280;51124;53.394;-6.294;2024-03-25T08:31:24;98547.02;;;17.42;13.60
64698;BME280;51124;53.394;-6.294;2024-03-25T08:33:52;98546.27;;;16.83;13.49
64698;BME280;51124;53.394;-6.294;2024-03-25T08:36:20;98543.75;;;17.92;13.26
64698;BME280;51124;53.394;-6.294;2024-03-25T08:38:48;98541.03;;;16.69;13.65
64698;BME280;51124;53.394;-6.294;2024-03-25T08:41:15;98543.57;;;17.34;13.70
64698;BME280;51124;53.394;-6.294;2024-03-25T08:43:43;98542.78;;;16.65;13.86
64698;BME280;51124;53.394;-6.294;2024-03-25T08:46:11;98541.20;;;17.13;13.66
64698;BME280;51124;53.394;-6.294;2024-03-25T08:48:38;98541.52;;;17.80;13.55
64698;BME280;51124;53.394;-6.294;2024-03-25T08:51:06;98543.49;;;16.60;13.77
64698;BME280;51124;53.394;-6.294;2024-03-25T08:53:34;98537.28;;;17.09;13.46
64698;BME280;51124;53.394;-6.294;2024-03-25T08:56:02;98541.73;;;17.29;13.42
64698;BME280;51124;53.394;-6.294;2024-03-25T08:58:30;98541.20;;;17.31;13.47
64698;BME280;51124;53.394;-6.294;2024-03-25T09:00:58;98540.14;;;17.79;13.27
64698;BME280;51124;53.394;-6.294;2024-03-25T09:03:26;98536.13;;;17.27;13.51
64698;BME280;51124;53.394;-6.294;2024-03-25T09:05:54;98537.50;;;17.41;13.40
64698;BME280;51124;53.394;-6.294;2024-03-25T09:08:21;98540.41;;;17.71;13.29
64698;BME280;51124;53.394;-6.294;2024-03-25T09:10:49;98541.36;;;18.20;13.03
64698;BME280;51124;53.394;-6.294;2024-03-25T09:13:17;98542.45;;;18.32;13.31
64698;BME280;51124;53.394;-6.294;2024-03-25T09:15:44;98542.78;;;17.69;13.42
64698;BME280;51124;53.394;-6.294;2024-03-25T09:18:13;98540.12;;;18.02;13.16
64698;BME280;51124;53.394;-6.294;2024-03-25T09:20:40;98539.68;;;17.59;13.26
64698;BME280;51124;53.394;-6.294;2024-03-25T09:23:08;98536.59;;;17.48;13.23
64698;BME280;51124;53.394;-6.294;2024-03-25T09:25:36;98530.19;;;17.89;12.99
64698;BME280;51124;53.394;-6.294;2024-03-25T09:28:04;98530.39;;;18.10;13.14
64698;BME280;51124;53.394;-6.294;2024-03-25T09:30:31;98532.32;;;17.74;13.17
64698;BME280;51124;53.394;-6.294;2024-03-25T09:32:59;98535.59;;;18.20;13.26
64698;BME280;51124;53.394;-6.294;2024-03-25T09:35:27;98534.43;;;17.54;13.25
64698;BME280;51124;53.394;-6.294;2024-03-25T09:37:55;98527.82;;;18.02;13.27
64698;BME280;51124;53.394;-6.294;2024-03-25T09:40:23;98527.46;;;18.45;12.96
64698;BME280;51124;53.394;-6.294;2024-03-25T09:42:56;98522.73;;;18.53;12.91
64698;BME280;51124;53.394;-6.294;2024-03-25T09:45:26;98518.23;;;17.73;13.21
64698;BME280;51124;53.394;-6.294;2024-03-25T09:47:56;98520.44;;;17.32;13.46
64698;BME280;51124;53.394;-6.294;2024-03-25T09:50:25;98523.45;;;17.63;13.43
64698;BME280;51124;53.394;-6.294;2024-03-25T09:52:53;98519.83;;;17.79;13.38
64698;BME280;51124;53.394;-6.294;2024-03-25T09:55:21;98515.96;;;18.34;13.00
64698;BME280;51124;53.394;-6.294;2024-03-25T09:57:50;98516.01;;;18.55;13.28
64698;BME280;51124;53.394;-6.294;2024-03-25T10:00:17;98513.60;;;18.13;13.21
64698;BME280;51124;53.394;-6.294;2024-03-25T10:02:46;98515.78;;;18.35;13.14
64698;BME280;51124;53.394;-6.294;2024-03-25T10:05:13;98514.13;;;17.49;13.45
64698;BME280;51124;53.394;-6.294;2024-03-25T10:07:41;98516.26;;;18.13;13.43
64698;BME280;51124;53.394;-6.294;2024-03-25T10:10:10;98515.46;;;18.23;13.25
64698;BME280;51124;53.394;-6.294;2024-03-25T10:12:38;98510.08;;;18.20;13.07
64698;BME280;51124;53.394;-6.294;2024-03-25T10:15:06;98510.29;;;19.03;13.07
64698;BME280;51124;53.394;-6.294;2024-03-25T10:17:34;98506.57;;;18.35;13.32
64698;BME280;51124;53.394;-6.294;2024-03-25T10:20:02;98498.65;;;17.80;13.44
64698;BME280;51124;53.394;-6.294;2024-03-25T10:22:30;98500.56;;;18.22;13.40
64698;BME280;51124;53.394;-6.294;2024-03-25T10:24:58;98496.41;;;18.54;13.31
64698;BME280;51124;53.394;-6.294;2024-03-25T10:27:26;98493.53;;;18.30;13.52
64698;BME280;51124;53.394;-6.294;2024-03-25T10:29:55;98489.04;;;18.54;13.34
64698;BME280;51124;53.394;-6.294;2024-03-25T10:32:23;98483.56;;;18.15;13.28
64698;BME280;51124;53.394;-6.294;2024-03-25T10:34:51;98479.96;;;19.21;12.99
64698;BME280;51124;53.394;-6.294;2024-03-25T10:37:20;98481.15;;;19.68;12.87
64698;BME280;51124;53.394;-6.294;2024-03-25T10:39:50;98476.10;;;19.31;13.00
64698;BME280;51124;53.394;-6.294;2024-03-25T10:42:22;98476.44;;;18.06;13.42
64698;BME280;51124;53.394;-6.294;2024-03-25T10:44:51;98470.61;;;18.33;13.43
64698;BME280;51124;53.394;-6.294;2024-03-25T10:47:21;98467.29;;;18.20;13.35
64698;BME280;51124;53.394;-6.294;2024-03-25T10:49:54;98466.31;;;18.15;13.49
64698;BME280;51124;53.394;-6.294;2024-03-25T10:52:23;98473.38;;;17.91;13.48
64698;BME280;51124;53.394;-6.294;2024-03-25T10:54:52;98462.70;;;18.27;13.43
64698;BME280;51124;53.394;-6.294;2024-03-25T10:57:20;98453.33;;;19.36;11.73
64698;BME280;51124;53.394;-6.294;2024-03-25T10:59:48;98454.23;;;18.87;12.41
64698;BME280;51124;53.394;-6.294;2024-03-25T11:02:17;98464.22;;;19.80;12.15
64698;BME280;51124;53.394;-6.294;2024-03-25T11:04:45;98463.37;;;18.74;12.44
64698;BME280;51124;53.394;-6.294;2024-03-25T11:07:14;98464.77;;;18.87;12.49
64698;BME280;51124;53.394;-6.294;2024-03-25T11:09:43;98462.57;;;19.42;12.41
64698;BME280;51124;53.394;-6.294;2024-03-25T11:12:12;98465.74;;;19.01;12.43
64698;BME280;51124;53.394;-6.294;2024-03-25T11:14:40;98468.28;;;18.85;12.58
64698;BME280;51124;53.394;-6.294;2024-03-25T11:17:16;98468.71;;;18.61;12.71
64698;BME280;51124;53.394;-6.294;2024-03-25T11:19:34;98474.35;;;19.56;12.46
64698;BME280;51124;53.394;-6.294;2024-03-25T11:22:10;98470.17;;;18.71;12.82
64698;BME280;51124;53.394;-6.294;2024-03-25T11:24:29;98476.18;;;18.44;12.71
64698;BME280;51124;53.394;-6.294;2024-03-25T11:26:58;98473.43;;;19.00;12.69
64698;BME280;51124;53.394;-6.294;2024-03-25T11:29:25;98471.48;;;18.76;12.67
64698;BME280;51124;53.394;-6.294;2024-03-25T11:31:54;98475.45;;;18.79;12.58
64698;BME280;51124;53.394;-6.294;2024-03-25T11:34:23;98470.34;;;18.86;12.52
64698;BME280;51124;53.394;-6.294;2024-03-25T11:36:51;98464.72;;;19.22;12.50
64698;BME280;51124;53.394;-6.294;2024-03-25T11:39:18;98461.47;;;18.66;12.74
64698;BME280;51124;53.394;-6.294;2024-03-25T11:41:46;98467.53;;;18.87;12.76
64698;BME280;51124;53.394;-6.294;2024-03-25T11:44:14;98469.40;;;18.88;13.03
64698;BME280;51124;53.394;-6.294;2024-03-25T11:46:42;98470.52;;;18.62;12.87
64698;BME280;51124;53.394;-6.294;2024-03-25T11:49:18;98470.14;;;19.19;12.61
64698;BME280;51124;53.394;-6.294;2024-03-25T11:51:46;98468.28;;;18.85;12.73
64698;BME280;51124;53.394;-6.294;2024-03-25T11:54:15;98461.15;;;18.64;12.77
64698;BME280;51124;53.394;-6.294;2024-03-25T11:56:43;98463.89;;;18.87;12.91
64698;BME280;51124;53.394;-6.294;2024-03-25T11:59:11;98461.91;;;18.60;13.06
64698;BME280;51124;53.394;-6.294;2024-03-25T12:01:38;98451.86;;;18.48;13.01
64698;BME280;51124;53.394;-6.294;2024-03-25T12:04:15;98450.80;;;18.62;12.95
64698;BME280;51124;53.394;-6.294;2024-03-25T12:06:33;98444.25;;;18.26;13.12
64698;BME280;51124;53.394;-6.294;2024-03-25T12:09:01;98439.96;;;17.87;13.13
64698;BME280;51124;53.394;-6.294;2024-03-25T12:11:28;98432.17;;;18.99;12.94
64698;BME280;51124;53.394;-6.294;2024-03-25T12:13:56;98429.59;;;19.38;12.68
64698;BME280;51124;53.394;-6.294;2024-03-25T12:16:25;98431.64;;;20.34;12.36
64698;BME280;51124;53.394;-6.294;2024-03-25T12:18:53;98432.74;;;20.24;12.15
64698;BME280;51124;53.394;-6.294;2024-03-25T12:21:22;98430.89;;;20.34;12.06
64698;BME280;51124;53.394;-6.294;2024-03-25T12:23:49;98426.16;;;20.66;11.89
64698;BME280;51124;53.394;-6.294;2024-03-25T12:26:17;98425.96;;;20.37;12.17
64698;BME280;51124;53.394;-6.294;2024-03-25T12:28:45;98427.55;;;19.59;12.12
64698;BME280;51124;53.394;-6.294;2024-03-25T12:31:14;98430.59;;;19.11;12.28
64698;BME280;51124;53.394;-6.294;2024-03-25T12:33:43;98429.72;;;18.35;12.86
64698;BME280;51124;53.394;-6.294;2024-03-25T12:36:13;98427.04;;;19.26;12.63
64698;BME280;51124;53.394;-6.294;2024-03-25T12:38:42;98425.16;;;18.27;13.04
64698;BME280;51124;53.394;-6.294;2024-03-25T12:41:10;98423.14;;;18.13;12.85
64698;BME280;51124;53.394;-6.294;2024-03-25T12:43:43;98419.15;;;18.44;12.94
64698;BME280;51124;53.394;-6.294;2024-03-25T12:46:12;98420.80;;;18.31;13.12
64698;BME280;51124;53.394;-6.294;2024-03-25T12:48:40;98428.13;;;18.48;13.05
64698;BME280;51124;53.394;-6.294;2024-03-25T12:51:12;98427.66;;;18.28;13.07
64698;BME280;51124;53.394;-6.294;2024-03-25T12:53:40;98425.63;;;18.27;13.31